createdAt,value
2023-04-19T00:01:12.330Z,6.72
2023-04-19T00:03:39.727Z,7.63
2023-04-19T00:06:08.446Z,6.88
2023-04-19T00:08:35.691Z,7.30
2023-04-19T00:11:02.850Z,6.68
2023-04-19T00:13:30.202Z,7.45
2023-04-19T00:15:57.380Z,7.60
2023-04-19T00:18:24.703Z,7.85
2023-04-19T00:20:51.904Z,6.90
2023-04-19T00:23:19.115Z,7.72
2023-04-19T00:25:46.723Z,7.88
2023-04-19T00:28:14.014Z,6.93
2023-04-19T00:30:43.345Z,7.80
2023-04-19T00:33:12.971Z,7.40
2023-04-19T00:35:42.179Z,8.15
2023-04-19T00:38:09.399Z,7.25
2023-04-19T00:40:37.954Z,6.47
2023-04-19T00:43:05.533Z,6.47
2023-04-19T00:45:35.982Z,7.90
2023-04-19T00:48:03.546Z,8.32
2023-04-19T00:50:31.102Z,8.50
2023-04-19T00:53:01.446Z,8.70
2023-04-19T00:55:28.882Z,7.75
2023-04-19T00:57:56.275Z,8.15
2023-04-19T01:00:23.662Z,8.68
2023-04-19T01:02:52.475Z,9.48
2023-04-19T01:05:19.801Z,8.40
2023-04-19T01:07:47.003Z,8.32
2023-04-19T01:10:15.372Z,8.18
2023-04-19T01:12:42.569Z,7.45
2023-04-19T01:15:11.755Z,8.32
2023-04-19T01:17:39.394Z,8.40
2023-04-19T01:20:08.088Z,8.38
2023-04-19T01:22:37.583Z,7.90
2023-04-19T01:25:08.238Z,8.45
2023-04-19T01:27:35.647Z,8.82
2023-04-19T01:30:03.251Z,8.87
2023-04-19T01:32:30.482Z,8.45
2023-04-19T01:34:58.154Z,8.88
2023-04-19T01:37:25.567Z,8.80
2023-04-19T01:39:52.782Z,8.80
2023-04-19T01:42:19.991Z,8.90
2023-04-19T01:44:47.164Z,8.63
2023-04-19T01:47:14.401Z,7.72
2023-04-19T01:49:41.602Z,9.40
2023-04-19T01:52:09.203Z,9.48
2023-04-19T01:54:36.373Z,9.10
2023-04-19T01:57:03.661Z,7.70
2023-04-19T01:59:31.434Z,8.23
2023-04-19T02:01:58.676Z,8.52
2023-04-19T02:04:26.328Z,8.65
2023-04-19T02:06:53.666Z,8.70
2023-04-19T02:09:20.817Z,8.75
2023-04-19T02:11:50.181Z,9.40
2023-04-19T02:14:17.532Z,9.80
2023-04-19T02:16:44.967Z,8.88
2023-04-19T02:19:12.348Z,8.70
2023-04-19T02:21:39.584Z,9.80
2023-04-19T02:24:07.234Z,9.57
2023-04-19T02:26:34.434Z,9.52
2023-04-19T02:29:01.665Z,9.57
2023-04-19T02:31:28.921Z,9.60
2023-04-19T02:33:56.148Z,9.68
2023-04-19T02:36:23.550Z,9.48
2023-04-19T02:38:50.787Z,10.27
2023-04-19T02:41:20.156Z,9.35
2023-04-19T02:43:47.334Z,9.20
2023-04-19T02:46:14.630Z,10.77
2023-04-19T02:48:41.942Z,9.45
2023-04-19T02:51:14.448Z,8.98
2023-04-19T02:53:41.720Z,9.98
2023-04-19T02:56:09.367Z,9.40
2023-04-19T02:58:36.605Z,10.10
2023-04-19T03:01:06.820Z,9.32
2023-04-19T03:03:34.125Z,10.38
2023-04-19T03:06:01.898Z,9.88
2023-04-19T03:08:30.151Z,9.30
2023-04-19T03:10:57.341Z,9.65
2023-04-19T03:13:24.520Z,8.65
2023-04-19T03:15:51.774Z,9.70
2023-04-19T03:18:22.619Z,9.05
2023-04-19T03:20:50.718Z,9.40
2023-04-19T03:23:17.974Z,9.68
2023-04-19T03:25:46.512Z,9.55
2023-04-19T03:28:25.422Z,9.13
2023-04-19T03:31:18.169Z,8.85
2023-04-19T03:33:48.937Z,8.83
2023-04-19T03:36:16.651Z,9.70
2023-04-19T03:38:46.190Z,8.75
2023-04-19T03:41:24.557Z,9.05
2023-04-19T03:44:03.141Z,9.32
2023-04-19T03:46:33.347Z,8.77
2023-04-19T03:49:01.112Z,9.40
2023-04-19T03:51:29.220Z,9.88
2023-04-19T03:53:56.360Z,9.45
2023-04-19T03:56:24.120Z,8.90
2023-04-19T03:58:52.312Z,9.20
2023-04-19T04:01:24.252Z,8.65
2023-04-19T04:03:53.614Z,8.85
2023-04-19T04:06:21.055Z,8.65
2023-04-19T04:08:48.683Z,8.13
2023-04-19T04:11:15.928Z,8.67
2023-04-19T04:13:46.424Z,8.25
2023-04-19T04:16:18.667Z,8.55
2023-04-19T04:18:46.008Z,8.52
2023-04-19T04:21:15.457Z,8.25
2023-04-19T04:23:47.228Z,9.03
2023-04-19T04:26:22.004Z,8.48
2023-04-19T04:29:08.550Z,7.93
2023-04-19T04:31:36.607Z,8.00
2023-04-19T04:34:04.581Z,8.20
2023-04-19T04:36:35.277Z,8.60
2023-04-19T04:39:03.616Z,6.78
2023-04-19T04:41:31.449Z,6.95
2023-04-19T04:44:12.176Z,8.00
2023-04-19T04:46:40.894Z,7.25
2023-04-19T04:49:10.178Z,7.93
2023-04-19T04:51:37.662Z,7.85
2023-04-19T04:54:05.670Z,7.05
2023-04-19T04:56:33.422Z,6.35
2023-04-19T04:59:00.858Z,7.53
2023-04-19T05:01:33.363Z,7.40
2023-04-19T05:04:01.227Z,5.78
2023-04-19T05:06:28.605Z,6.65
2023-04-19T05:08:55.927Z,7.05
2023-04-19T05:11:41.147Z,6.95
2023-04-19T05:14:08.354Z,6.87
2023-04-19T05:16:35.537Z,6.47
2023-04-19T05:19:04.003Z,6.10
2023-04-19T05:21:35.333Z,5.90
2023-04-19T05:24:05.405Z,6.43
2023-04-19T05:26:34.664Z,6.40
2023-04-19T05:29:03.136Z,6.15
2023-04-19T05:31:44.638Z,5.55
2023-04-19T05:34:20.575Z,5.95
2023-04-19T05:36:49.378Z,6.15
2023-04-19T05:39:17.181Z,5.80
2023-04-19T05:41:44.407Z,6.07
2023-04-19T05:44:11.618Z,5.47
2023-04-19T05:46:39.127Z,6.30
2023-04-19T05:49:09.269Z,6.35
2023-04-19T05:51:55.580Z,5.57
2023-04-19T05:54:34.448Z,6.13
2023-04-19T05:57:05.200Z,5.18
2023-04-19T05:59:32.730Z,5.68
2023-04-19T06:02:01.241Z,3.45
2023-04-19T06:04:28.992Z,4.67
2023-04-19T06:06:56.545Z,5.15
2023-04-19T06:09:24.133Z,5.03
2023-04-19T06:11:52.135Z,5.05
2023-04-19T06:14:19.726Z,4.75
2023-04-19T06:16:47.205Z,5.03
2023-04-19T06:19:14.450Z,5.30
2023-04-19T06:21:41.765Z,4.47
2023-04-19T06:24:09.250Z,4.63
2023-04-19T06:26:36.493Z,5.10
2023-04-19T06:29:03.768Z,4.80
2023-04-19T06:31:31.039Z,4.75
2023-04-19T06:33:58.282Z,5.50
2023-04-19T06:36:25.510Z,4.95
2023-04-19T06:38:52.672Z,5.28
2023-04-19T06:41:19.938Z,3.53
2023-04-19T06:43:47.158Z,4.70
2023-04-19T06:46:14.528Z,4.50
2023-04-19T06:48:41.918Z,4.38
2023-04-19T06:51:09.404Z,4.10
2023-04-19T06:53:37.007Z,4.23
2023-04-19T06:56:05.269Z,3.67
2023-04-19T06:58:34.882Z,4.13
2023-04-19T07:01:04.487Z,4.00
2023-04-19T07:03:32.419Z,4.32
2023-04-19T07:05:59.833Z,4.37
2023-04-19T07:08:35.049Z,3.47
2023-04-19T07:11:10.000Z,3.78
2023-04-19T07:13:37.192Z,3.38
2023-04-19T07:16:05.682Z,3.30
2023-04-19T07:18:33.018Z,4.00
2023-04-19T07:21:00.271Z,3.53
2023-04-19T07:23:27.504Z,3.83
2023-04-19T07:25:54.815Z,3.97
2023-04-19T07:28:22.048Z,3.80
2023-04-19T07:30:49.186Z,3.60
2023-04-19T07:33:17.015Z,3.88
2023-04-19T07:35:44.298Z,3.58
2023-04-19T07:38:11.474Z,3.90
2023-04-19T07:40:38.913Z,3.33
2023-04-19T07:43:06.798Z,3.80
2023-04-19T07:45:33.972Z,3.85
2023-04-19T07:48:01.265Z,3.75
2023-04-19T07:50:28.616Z,3.38
2023-04-19T07:52:56.680Z,3.10
2023-04-19T07:55:23.994Z,3.43
2023-04-19T07:57:51.136Z,3.03
2023-04-19T08:00:21.380Z,3.50
2023-04-19T08:02:49.584Z,3.38
2023-04-19T08:05:17.783Z,3.42
2023-04-19T08:07:45.728Z,2.80
2023-04-19T08:10:13.224Z,3.20
2023-04-19T08:12:53.572Z,3.47
2023-04-19T08:16:12.976Z,3.38
2023-04-19T08:18:16.421Z,3.60
2023-04-19T08:20:43.716Z,3.45
2023-04-19T08:23:21.636Z,3.60
2023-04-19T08:25:50.640Z,3.10
2023-04-19T08:28:18.883Z,2.95
2023-04-19T08:30:46.338Z,3.05
2023-04-19T08:33:13.621Z,2.92
2023-04-19T08:35:41.619Z,3.13
2023-04-19T08:38:09.764Z,3.08
2023-04-19T08:40:46.918Z,2.72
2023-04-19T08:43:15.109Z,2.70
2023-04-19T08:45:42.682Z,2.95
2023-04-19T08:48:13.102Z,3.10
2023-04-19T08:50:55.993Z,2.75
2023-04-19T08:53:30.643Z,2.85
2023-04-19T08:56:12.892Z,3.30
2023-04-19T08:59:03.967Z,2.50
2023-04-19T09:01:36.089Z,2.63
2023-04-19T09:04:26.575Z,2.50
2023-04-19T09:06:55.516Z,2.78
2023-04-19T09:09:35.490Z,2.63
2023-04-19T09:12:17.704Z,2.60
2023-04-19T09:15:01.066Z,2.50
2023-04-19T09:17:30.275Z,2.70
2023-04-19T09:19:58.469Z,2.50
2023-04-19T09:22:27.007Z,2.40
2023-04-19T09:25:30.062Z,2.85
2023-04-19T09:27:41.526Z,3.20
2023-04-19T09:30:17.643Z,2.80
2023-04-19T09:32:49.548Z,2.92
2023-04-19T09:35:17.065Z,2.88
2023-04-19T09:40:31.482Z,2.80
2023-04-19T09:43:11.145Z,2.95
2023-04-19T09:45:46.349Z,3.10
2023-04-19T09:48:13.856Z,3.17
2023-04-19T09:51:00.878Z,3.13
2023-04-19T09:53:34.270Z,3.00
2023-04-19T09:56:03.454Z,2.92
2023-04-19T09:58:46.540Z,3.20
2023-04-19T10:01:19.998Z,2.60
2023-04-19T10:03:50.187Z,3.65
2023-04-19T10:08:51.294Z,2.83
2023-04-19T10:11:22.059Z,2.65
2023-04-19T10:13:53.499Z,3.15
2023-04-19T10:16:21.019Z,2.88
2023-04-19T10:18:50.305Z,2.93
2023-04-19T10:21:20.601Z,3.10
2023-04-19T10:23:48.411Z,2.50
2023-04-19T10:26:15.998Z,2.25
2023-04-19T10:28:45.886Z,2.90
2023-04-19T10:31:13.704Z,3.47
2023-04-19T10:33:42.121Z,2.40
2023-04-19T10:36:11.748Z,2.67
2023-04-19T10:38:49.677Z,3.03
2023-04-19T10:41:21.609Z,2.72
2023-04-19T10:44:10.120Z,2.50
2023-04-19T10:46:40.162Z,3.30
2023-04-19T10:49:09.790Z,2.22
2023-04-19T10:51:38.725Z,2.55
2023-04-19T10:54:27.277Z,2.35
2023-04-19T10:57:02.766Z,3.10
2023-04-19T10:59:44.336Z,2.85
2023-04-19T11:02:24.683Z,3.10
2023-04-19T11:04:52.101Z,3.15
2023-04-19T11:07:21.193Z,3.72
2023-04-19T11:09:51.005Z,3.33
2023-04-19T11:12:19.736Z,3.42
2023-04-19T11:14:47.751Z,3.60
2023-04-19T11:17:16.688Z,4.95
2023-04-19T11:19:58.204Z,3.53
2023-04-19T11:22:32.972Z,3.37
2023-04-19T11:25:20.530Z,3.08
2023-04-19T11:27:52.935Z,3.10
2023-04-19T11:30:22.415Z,3.80
2023-04-19T11:32:54.893Z,4.10
2023-04-19T11:35:26.565Z,3.50
2023-04-19T11:37:55.218Z,3.45
2023-04-19T11:40:28.506Z,3.20
2023-04-19T11:43:00.794Z,3.25
2023-04-19T11:45:36.704Z,3.22
2023-04-19T11:48:07.263Z,4.37
2023-04-19T11:50:42.759Z,4.07
2023-04-19T11:53:24.198Z,3.33
2023-04-19T11:56:11.779Z,3.85
2023-04-19T11:58:45.051Z,3.17
2023-04-19T12:01:20.548Z,3.60
2023-04-19T12:03:50.778Z,3.70
2023-04-19T12:06:29.782Z,4.22
2023-04-19T12:08:57.718Z,4.05
2023-04-19T12:11:27.197Z,3.90
2023-04-19T12:14:11.500Z,4.47
2023-04-19T12:16:38.833Z,3.58
2023-04-19T12:19:17.747Z,3.97
2023-04-19T12:21:46.891Z,3.60
2023-04-19T12:24:17.124Z,4.00
2023-04-19T12:26:57.679Z,4.20
2023-04-19T12:29:27.348Z,4.47
2023-04-19T12:31:54.516Z,3.45
2023-04-19T12:34:21.756Z,3.33
2023-04-19T12:36:48.966Z,3.75
2023-04-19T12:39:16.442Z,3.50
2023-04-19T12:41:43.907Z,3.40
2023-04-19T12:44:11.121Z,3.58
2023-04-19T12:46:38.378Z,3.45
2023-04-19T12:49:05.676Z,3.30
2023-04-19T12:51:32.981Z,4.30
2023-04-19T12:54:00.220Z,3.35
2023-04-19T12:56:27.443Z,3.50
2023-04-19T12:58:54.718Z,4.20
2023-04-19T13:01:21.986Z,3.55
2023-04-19T13:03:49.396Z,3.53
2023-04-19T13:06:17.375Z,3.22
2023-04-19T13:08:46.593Z,3.65
2023-04-19T13:11:15.910Z,3.80
2023-04-19T13:13:43.338Z,3.72
2023-04-19T13:16:11.029Z,3.60
2023-04-19T13:18:38.288Z,3.60
2023-04-19T13:21:08.065Z,3.45
2023-04-19T13:23:36.142Z,4.00
2023-04-19T13:26:03.447Z,3.30
2023-04-19T13:28:30.986Z,2.87
2023-04-19T13:30:58.241Z,3.60
2023-04-19T13:33:26.917Z,3.30
2023-04-19T13:35:54.221Z,3.10
2023-04-19T13:38:21.424Z,3.08
2023-04-19T13:40:48.605Z,3.00
2023-04-19T13:43:15.785Z,3.17
2023-04-19T13:45:42.961Z,2.90
2023-04-19T13:48:10.213Z,2.63
2023-04-19T13:50:37.494Z,3.22
2023-04-19T13:53:04.835Z,3.10
2023-04-19T13:55:32.193Z,3.22
2023-04-19T13:57:59.621Z,2.90
2023-04-19T14:00:26.926Z,3.08
2023-04-19T14:02:56.474Z,2.92
2023-04-19T14:05:23.866Z,2.50
2023-04-19T14:07:52.345Z,2.90
2023-04-19T14:10:19.736Z,2.40
2023-04-19T14:12:47.428Z,3.42
2023-04-19T14:15:14.908Z,2.63
2023-04-19T14:17:42.134Z,2.47
2023-04-19T14:20:09.619Z,2.60
2023-04-19T14:22:37.001Z,1.92
2023-04-19T14:25:04.591Z,2.15
2023-04-19T14:27:32.491Z,2.80
2023-04-19T14:29:59.739Z,3.03
2023-04-19T14:32:27.736Z,2.42
2023-04-19T14:34:56.986Z,2.40
2023-04-19T14:37:26.688Z,3.20
2023-04-19T14:39:54.787Z,2.95
2023-04-19T14:42:23.855Z,2.90
2023-04-19T14:44:52.321Z,2.33
2023-04-19T14:47:20.256Z,2.38
2023-04-19T14:49:47.581Z,2.42
2023-04-19T14:52:15.306Z,2.10
2023-04-19T14:54:43.191Z,2.97
2023-04-19T14:57:10.603Z,2.60
2023-04-19T14:59:37.820Z,2.90
2023-04-19T15:02:05.743Z,2.63
2023-04-19T15:04:39.926Z,2.78
2023-04-19T15:07:08.505Z,2.70
2023-04-19T15:09:35.781Z,2.63
2023-04-19T15:12:03.105Z,3.28
2023-04-19T15:14:30.428Z,4.10
2023-04-19T15:16:57.659Z,2.88
2023-04-19T15:19:24.900Z,3.37
2023-04-19T15:21:52.167Z,3.08
2023-04-19T15:24:19.348Z,2.80
2023-04-19T15:26:46.626Z,3.35
2023-04-19T15:29:13.959Z,3.30
2023-04-19T15:31:41.213Z,2.90
2023-04-19T15:34:08.562Z,3.35
2023-04-19T15:36:36.196Z,3.15
2023-04-19T15:39:03.623Z,3.90
2023-04-19T15:41:30.863Z,3.50
2023-04-19T15:43:58.158Z,4.47
2023-04-19T15:46:25.476Z,4.32
2023-04-19T15:48:52.790Z,4.45
2023-04-19T15:51:20.036Z,4.38
2023-04-19T15:53:47.247Z,3.63
2023-04-19T15:56:14.410Z,4.63
2023-04-19T15:58:42.087Z,4.00
2023-04-19T16:01:13.052Z,4.00
2023-04-19T16:03:41.383Z,4.63
2023-04-19T16:06:09.462Z,4.00
2023-04-19T16:08:36.655Z,4.47
2023-04-19T16:11:05.405Z,4.05
2023-04-19T16:13:32.671Z,4.03
2023-04-19T16:16:01.351Z,4.43
2023-04-19T16:18:28.641Z,4.57
2023-04-19T16:20:55.853Z,4.77
2023-04-19T16:23:24.306Z,4.25
2023-04-19T16:25:51.537Z,3.88
2023-04-19T16:28:19.696Z,4.13
2023-04-19T16:30:47.494Z,3.83
2023-04-19T16:33:15.798Z,4.13
2023-04-19T16:35:43.246Z,4.20
2023-04-19T16:38:10.725Z,3.65
2023-04-19T16:40:37.931Z,3.95
2023-04-19T16:43:06.298Z,3.50
2023-04-19T16:45:33.687Z,4.20
2023-04-19T16:48:01.097Z,3.88
2023-04-19T16:50:28.430Z,3.95
2023-04-19T16:52:55.778Z,4.05
2023-04-19T16:55:22.999Z,4.05
2023-04-19T16:57:51.005Z,4.30
2023-04-19T17:00:18.528Z,4.20
2023-04-19T17:02:45.955Z,4.15
2023-04-19T17:05:14.339Z,3.70
2023-04-19T17:07:43.257Z,3.75
2023-04-19T17:10:10.730Z,4.17
2023-04-19T17:12:37.938Z,4.63
2023-04-19T17:15:05.817Z,4.10
2023-04-19T17:17:33.054Z,4.13
2023-04-19T17:20:00.359Z,3.78
2023-04-19T17:22:27.760Z,3.90
2023-04-19T17:24:57.262Z,3.92
2023-04-19T17:27:24.886Z,3.80
2023-04-19T17:29:52.037Z,3.67
2023-04-19T17:32:19.228Z,4.00
2023-04-19T17:34:46.434Z,3.80
2023-04-19T17:37:13.643Z,3.83
2023-04-19T17:39:40.853Z,4.15
2023-04-19T17:42:08.030Z,3.80
2023-04-19T17:44:36.206Z,4.07
2023-04-19T17:47:03.536Z,4.00
2023-04-19T17:49:30.737Z,4.20
2023-04-19T17:51:57.934Z,4.05
2023-04-19T17:54:25.168Z,3.67
2023-04-19T17:56:52.827Z,3.95
2023-04-19T17:59:20.544Z,3.97
2023-04-19T18:01:47.787Z,3.75
2023-04-19T18:04:17.858Z,3.60
2023-04-19T18:06:46.436Z,3.47
2023-04-19T18:09:14.018Z,3.78
2023-04-19T18:11:41.296Z,3.30
2023-04-19T18:14:08.774Z,3.58
2023-04-19T18:16:36.187Z,3.40
2023-04-19T18:19:03.506Z,3.05
2023-04-19T18:21:31.318Z,2.88
2023-04-19T18:23:58.921Z,2.75
2023-04-19T18:26:35.613Z,2.80
2023-04-19T18:29:04.420Z,3.30
2023-04-19T18:31:31.817Z,2.85
2023-04-19T18:33:59.193Z,2.80
2023-04-19T18:36:28.065Z,2.95
2023-04-19T18:38:55.972Z,2.78
2023-04-19T18:41:23.507Z,2.45
2023-04-19T18:44:18.484Z,2.88
2023-04-19T18:46:37.925Z,2.60
2023-04-19T18:49:05.132Z,3.00
2023-04-19T18:51:32.845Z,2.88
2023-04-19T18:54:00.136Z,2.67
2023-04-19T18:57:03.836Z,2.30
2023-04-19T18:59:14.868Z,2.92
2023-04-19T19:01:45.062Z,2.67
2023-04-19T19:06:51.636Z,2.53
2023-04-19T19:09:22.793Z,2.63
2023-04-19T19:11:56.525Z,2.30
2023-04-19T19:14:24.375Z,2.35
2023-04-19T19:16:52.921Z,2.70
2023-04-19T19:19:22.443Z,2.70
2023-04-19T19:21:50.159Z,2.53
2023-04-19T19:24:17.457Z,2.70
2023-04-19T19:26:44.643Z,2.47
2023-04-19T19:29:15.850Z,2.63
2023-04-19T19:31:43.660Z,2.65
2023-04-19T19:34:25.331Z,3.08
2023-04-19T19:36:54.693Z,2.72
2023-04-19T19:39:22.214Z,2.92
2023-04-19T19:42:05.147Z,2.85
2023-04-19T19:44:32.885Z,2.80
2023-04-19T19:47:00.322Z,2.95
2023-04-19T19:49:27.913Z,2.70
2023-04-19T19:51:59.041Z,2.95
2023-04-19T19:54:26.782Z,2.92
2023-04-19T19:57:35.580Z,2.70
2023-04-19T19:59:50.374Z,2.78
2023-04-19T20:02:22.457Z,2.60
2023-04-19T20:04:50.360Z,2.80
2023-04-19T20:07:33.331Z,2.72
2023-04-19T20:10:12.132Z,2.70
2023-04-19T20:12:43.579Z,2.65
2023-04-19T20:15:14.120Z,2.50
2023-04-19T20:17:41.674Z,2.35
2023-04-19T20:20:11.061Z,2.75
2023-04-19T20:22:38.508Z,2.88
2023-04-19T20:25:06.573Z,2.63
2023-04-19T20:27:34.215Z,2.40
2023-04-19T20:30:01.503Z,2.75
2023-04-19T20:32:28.986Z,2.70
2023-04-19T20:34:56.251Z,2.83
2023-04-19T20:37:24.016Z,2.75
2023-04-19T20:39:51.353Z,2.97
2023-04-19T20:42:18.590Z,2.53
2023-04-19T20:44:45.836Z,2.50
2023-04-19T20:47:13.125Z,2.05
2023-04-19T20:49:40.976Z,2.40
2023-04-19T20:52:08.242Z,2.20
2023-04-19T20:54:36.598Z,2.20
2023-04-19T20:57:04.571Z,2.30
2023-04-19T20:59:31.920Z,2.20
2023-04-19T21:02:00.118Z,2.35
2023-04-19T21:04:27.675Z,2.35
2023-04-19T21:06:55.192Z,2.28
2023-04-19T21:09:22.893Z,2.20
2023-04-19T21:11:50.076Z,2.03
2023-04-19T21:14:17.358Z,2.20
2023-04-19T21:16:44.609Z,2.10
2023-04-19T21:19:11.849Z,2.42
2023-04-19T21:21:39.084Z,2.35
2023-04-19T21:24:07.826Z,2.20
2023-04-19T21:26:35.020Z,1.90
2023-04-19T21:29:02.341Z,2.30
2023-04-19T21:31:29.687Z,2.13
2023-04-19T21:33:56.899Z,1.98
2023-04-19T21:36:25.360Z,2.00
2023-04-19T21:38:52.709Z,2.13
2023-04-19T21:41:19.870Z,1.93
2023-04-19T21:43:47.050Z,1.73
2023-04-19T21:46:14.316Z,1.55
2023-04-19T21:48:41.611Z,2.00
2023-04-19T21:51:08.897Z,1.77
2023-04-19T21:53:36.281Z,1.77
2023-04-19T21:56:03.602Z,2.17
2023-04-19T21:58:33.274Z,1.80
2023-04-19T22:01:00.624Z,1.67
2023-04-19T22:03:28.045Z,1.90
2023-04-19T22:05:55.456Z,1.90
2023-04-19T22:08:22.797Z,2.20
2023-04-19T22:10:50.415Z,1.83
2023-04-19T22:13:18.045Z,1.80
2023-04-19T22:15:45.303Z,1.73
2023-04-19T22:18:12.617Z,1.80
2023-04-19T22:20:40.020Z,1.60
2023-04-19T22:23:07.296Z,1.83
2023-04-19T22:25:34.576Z,1.85
2023-04-19T22:28:01.779Z,1.83
2023-04-19T22:30:29.066Z,1.63
2023-04-19T22:32:56.538Z,1.75
2023-04-19T22:35:23.779Z,1.60
2023-04-19T22:37:50.940Z,2.05
2023-04-19T22:40:18.218Z,1.67
2023-04-19T22:42:45.478Z,1.70
2023-04-19T22:45:12.669Z,1.70
2023-04-19T22:47:39.919Z,1.60
2023-04-19T22:50:08.838Z,1.60
2023-04-19T22:52:36.112Z,1.65
2023-04-19T22:55:03.782Z,1.50
2023-04-19T22:59:58.545Z,1.70
2023-04-19T23:02:26.061Z,1.95
2023-04-19T23:04:54.258Z,2.00
2023-04-19T23:07:21.957Z,1.67
2023-04-19T23:09:50.940Z,1.48
2023-04-19T23:12:18.130Z,1.58
2023-04-19T23:14:48.306Z,1.70
2023-04-19T23:17:15.929Z,1.80
2023-04-19T23:19:43.396Z,2.03
2023-04-19T23:22:10.620Z,1.92
2023-04-19T23:24:37.770Z,1.50
2023-04-19T23:27:04.995Z,2.38
2023-04-19T23:29:32.224Z,1.83
2023-04-19T23:32:01.594Z,1.60
2023-04-19T23:34:28.839Z,1.88
2023-04-19T23:36:56.797Z,1.75
2023-04-19T23:39:24.112Z,1.70
2023-04-19T23:41:51.321Z,2.03
2023-04-19T23:44:18.705Z,2.30
2023-04-19T23:46:45.953Z,1.80
2023-04-19T23:49:13.156Z,2.08
2023-04-19T23:51:40.599Z,2.15
2023-04-19T23:54:07.791Z,2.45
2023-04-19T23:56:34.962Z,1.97
2023-04-19T23:59:02.143Z,2.05
